Latest Weather Observations for Clermont Airport

IDQ60801

Issued at 6:35 pm EST Wednesday 27 August 2014 (issued every 30 minutes, with the page automatically refreshed every 10 minutes)

About weather observations | Map of weather stations | Latest weather observations for QLD | Other Formats
Station Details ID: 035124 Name: CLERMONT AIRPORT Lat: -22.78 Lon: 147.62 Height: 270.27 m
Data from the previous 72 hours. | See also: Recent months at Clermont Airport
Date/Time
EST
Temp
°C
App
Temp
°C
Dew
Point
Rel
Hum
%
Delta-T
°C
Wind Press
QNH
hPa
Press
MSL
hPa
Rain
since 9 am
mm
Dir
 
Spd
km/h
Gust
km/h
Spd
kts
Gust
kts
27/06:30pm 18.9 16.5 -0.5 27 8.5 SW 2 4 1 2 1016.8 1016.3 0.0
27/06:00pm 20.4 17.0 -0.8 24 9.4 SW 7 11 4 6 1016.3 1015.8 0.0
27/05:30pm 22.1 17.5 -1.2 21 10.4 SW 13 19 7 10 1015.9 1015.4 0.0
27/05:00pm 23.0 18.0 -1.1 20 10.8 SW 15 26 8 14 1015.8 1015.3 0.0
27/04:30pm 23.4 17.8 -3.0 17 11.5 SW 17 28 9 15 1015.7 1015.1 0.0
27/04:00pm 23.6 17.8 -4.5 15 11.9 SSW 17 28 9 15 1015.5 1014.9 0.0
27/03:30pm 24.1 18.4 -4.1 15 12.1 SSW 17 24 9 13 1015.4 1014.8 0.0
27/03:00pm 23.9 20.0 -1.8 18 11.5 SSW 9 19 5 10 1015.2 1014.6 0.0
27/02:30pm 23.1 19.3 -1.1 20 10.9 SSW 9 19 5 10 1015.6 1015.0 0.0
27/02:00pm 22.5 19.1 -0.9 21 10.5 SSE 7 17 4 9 1015.9 1015.4 0.0
27/01:30pm 22.5 18.0 -0.3 22 10.4 SSW 13 28 7 15 1016.4 1015.9 0.0
27/01:00pm 21.7 17.7 0.3 24 9.8 S 11 19 6 10 1017.0 1016.5 0.0
27/12:30pm 21.2 16.4 -0.1 24 9.6 S 15 26 8 14 1017.6 1017.1 0.0
27/12:00pm 20.4 15.8 -0.8 24 9.4 SW 13 22 7 12 1018.2 1017.6 0.0
27/11:30am 20.3 16.1 -0.9 24 9.4 S 11 26 6 14 1018.8 1018.2 0.0
27/11:00am 19.4 15.6 -1.1 25 8.9 SSW 9 20 5 11 1019.2 1018.7 0.0
27/10:30am 19.0 14.9 -0.4 27 8.5 SE 11 20 6 11 1019.6 1019.1 0.0
27/10:00am 18.3 13.3 -1.0 27 8.3 SSE 15 22 8 12 1019.8 1019.3 0.0
27/09:30am 17.6 12.3 -0.6 29 7.9 SE 17 26 9 14 1020.0 1019.5 0.0
27/09:00am 16.5 12.8 0.2 33 7.1 S 9 15 5 8 1019.9 1019.4 0.0
27/08:30am 14.6 11.2 1.8 42 5.7 S 9 13 5 7 1019.8 1019.3 0.0
27/08:00am 11.3 9.6 1.8 52 4.1 CALM 0 2 0 1 1019.7 1019.2 0.0
27/07:30am 7.2 5.5 1.9 69 2.2 CALM 0 0 0 0 1019.4 1018.9 0.0
27/07:00am 4.3 2.6 2.0 85 0.9 CALM 0 0 0 0 1019.0 1018.5 0.0
27/06:30am 2.6 0.6 -0.2 82 1.0 CALM 0 0 0 0 1018.6 1018.0 0.0
27/06:00am 3.3 1.3 0.2 80 1.2 WSW 0 0 0 0 1018.3 1017.7 0.0
27/05:30am 3.8 1.8 0.1 77 1.4 CALM 0 0 0 0 1018.1 1017.5 0.0
27/05:00am 2.9 0.2 0.3 83 1.0 E 4 6 2 3 1017.9 1017.4 0.0
27/04:30am 2.9 -0.4 0.3 83 1.0 WSW 7 9 4 5 1017.7 1017.2 0.0
27/04:00am 2.9 0.1 -0.2 80 1.2 W 4 6 2 3 1017.8 1017.3 0.0
27/03:30am 3.4 1.4 -0.4 76 1.4 CALM 0 0 0 0 1017.8 1017.3 0.0
27/03:00am 3.9 2.0 0.4 78 1.3 CALM 0 0 0 0 1017.9 1017.4 0.0
27/02:30am 4.3 2.4 0.3 75 1.5 CALM 0 0 0 0 1017.8 1017.3 0.0
27/02:00am 5.3 3.3 0.1 69 2.0 CALM 0 0 0 0 1017.9 1017.4 0.0
27/01:30am 5.5 3.7 0.9 72 1.8 CALM 0 0 0 0 1018.1 1017.5 0.0
27/01:00am 6.8 5.0 0.9 66 2.4 CALM 0 0 0 0 1018.2 1017.6 0.0
27/12:30am 6.7 5.0 1.6 70 2.1 CALM 0 0 0 0 1018.2 1017.6 0.0
27/12:00am 11.2 9.2 -0.3 45 4.7 NE 0 0 0 0 1018.2 1017.6 0.0
 
Date/Time
EST
Temp
°C
App
Temp
°C
Dew
Point
Rel
Hum
%
Delta-T
°C
Wind Press
QNH
hPa
Press
MSL
hPa
Rain
since 9 am
mm
Dir
 
Spd
km/h
Gust
km/h
Spd
kts
Gust
kts
26/11:30pm 8.6 5.9 0.1 55 3.4 ESE 4 6 2 3 1018.2 1017.6 0.0
26/11:00pm 10.5 7.4 1.6 54 3.8 SSW 7 7 4 4 1017.8 1017.3 0.0
26/10:30pm 11.9 9.3 1.0 47 4.6 SW 4 6 2 3 1017.8 1017.3 0.0
26/10:00pm 13.7 10.9 -0.7 37 6.0 WSW 4 4 2 2 1017.7 1017.2 0.0
26/09:30pm 15.5 12.7 -0.7 33 6.9 SW 4 6 2 3 1017.6 1017.1 0.0
26/09:00pm 15.4 12.1 0.0 35 6.6 SW 7 7 4 4 1017.6 1017.1 0.0
26/08:30pm 13.9 11.2 2.8 47 5.0 SW 6 7 3 4 1017.4 1016.9 0.0
26/08:00pm 14.4 11.6 2.3 44 5.4 WSW 6 6 3 3 1017.2 1016.7 0.0
26/07:30pm 16.5 13.8 0.2 33 7.1 WSW 4 4 2 2 1016.9 1016.4 0.0
26/07:00pm 19.5 16.6 -1.0 25 9.0 SW 4 6 2 3 1016.5 1016.0 0.0
26/06:30pm 21.2 18.0 -0.7 23 9.8 SW 6 7 3 4 1016.1 1015.6 0.0
26/06:00pm 22.6 19.3 -0.2 22 10.4 SW 7 17 4 9 1015.8 1015.3 0.0
26/05:30pm 24.1 20.3 -0.9 19 11.4 SSW 9 15 5 8 1015.4 1014.8 0.0
26/05:00pm 25.1 20.9 -0.9 18 11.9 WSW 11 19 6 10 1015.2 1014.6 0.0
26/04:30pm 25.7 21.1 -1.2 17 12.3 SW 13 22 7 12 1015.1 1014.5 0.0
26/04:00pm 26.0 21.4 -0.9 17 12.4 WSW 13 22 7 12 1015.0 1014.4 0.0
26/03:30pm 26.2 21.7 0.0 18 12.3 SW 13 20 7 11 1015.0 1014.4 0.0
26/03:00pm 25.6 22.2 1.7 21 11.5 WNW 9 17 5 9 1015.0 1014.4 0.0
26/02:30pm 25.1 21.6 1.3 21 11.4 WSW 9 17 5 9 1015.5 1014.9 0.0
26/02:00pm 25.0 21.2 1.8 22 11.2 S 11 22 6 12 1016.0 1015.5 0.0
26/01:30pm 24.4 21.3 1.3 22 11.0 S 7 20 4 11 1016.5 1016.0 0.0
26/01:00pm 24.3 20.0 1.2 22 10.9 SW 13 19 7 10 1016.9 1016.4 0.0
26/12:30pm 23.7 19.8 1.4 23 10.6 SW 11 20 6 11 1017.5 1017.0 0.0
26/12:00pm 23.2 20.5 2.7 26 9.9 W 6 11 3 6 1018.2 1017.6 0.0
26/11:30am 22.4 19.4 2.0 26 9.7 S 7 19 4 10 1018.9 1018.3 0.0
26/11:00am 22.4 18.7 2.5 27 9.5 ESE 11 19 6 10 1019.5 1019.0 0.0
26/10:30am 21.5 17.4 2.2 28 9.1 SSE 13 20 7 11 1020.0 1019.5 0.0
26/10:00am 20.8 17.3 3.5 32 8.3 SE 11 20 6 11 1020.4 1019.9 0.0
26/09:30am 19.3 16.2 3.5 35 7.5 SE 9 15 5 8 1020.5 1020.0 0.0
26/09:00am 17.6 14.9 3.5 39 6.6 S 7 11 4 6 1020.5 1020.0 0.0
26/08:30am 15.4 14.2 4.5 48 5.2 CALM 0 2 0 1 1020.4 1019.9 0.0
26/08:00am 11.5 10.6 6.2 70 2.5 CALM 0 0 0 0 1020.3 1019.8 0.0
26/07:30am 8.0 6.8 4.6 79 1.5 CALM 0 0 0 0 1020.0 1019.5 0.0
26/07:00am 5.3 3.9 3.6 89 0.7 CALM 0 0 0 0 1019.8 1019.3 0.0
26/06:30am 3.9 2.3 2.3 89 0.6 CALM 0 0 0 0 1019.5 1019.0 0.0
26/06:00am 4.1 2.5 2.5 89 0.7 CALM 0 0 0 0 1019.3 1018.8 0.0
26/05:30am 4.5 2.9 2.5 87 0.8 CALM 0 0 0 0 1019.0 1018.5 0.0
26/05:00am 4.8 3.2 2.7 86 0.9 CALM 0 0 0 0 1018.7 1018.1 0.0
26/04:30am 5.3 3.8 2.8 84 1.0 CALM 0 0 0 0 1018.6 1018.0 0.0
26/04:00am 5.5 4.0 2.8 83 1.1 CALM 0 0 0 0 1018.7 1018.1 0.0
26/03:30am 6.3 4.8 3.1 80 1.4 CALM 0 0 0 0 1018.7 1018.1 0.0
26/03:00am 6.1 4.6 3.1 81 1.3 CALM 0 0 0 0 1018.8 1018.2 0.0
26/02:30am 6.3 4.8 2.9 79 1.4 CALM 0 4 0 2 1018.9 1018.3 0.0
26/02:00am 6.5 5.1 3.3 80 1.4 CALM 0 2 0 1 1019.2 1018.7 0.0
26/01:30am 6.9 5.5 3.5 79 1.5 CALM 0 0 0 0 1019.3 1018.8 0.0
26/01:00am 7.0 5.6 3.8 80 1.4 CALM 0 0 0 0 1019.5 1019.0 0.0
26/12:30am 7.7 6.3 3.7 76 1.7 CALM 0 0 0 0 1019.7 1019.2 0.0
26/12:00am 8.6 7.3 4.2 74 1.9 CALM 0 0 0 0 1019.9 1019.4 0.0
 
Date/Time
EST
Temp
°C
App
Temp
°C
Dew
Point
Rel
Hum
%
Delta-T
°C
Wind Press
QNH
hPa
Press
MSL
hPa
Rain
since 9 am
mm
Dir
 
Spd
km/h
Gust
km/h
Spd
kts
Gust
kts
25/11:30pm 9.1 7.8 4.1 71 2.2 CALM 0 0 0 0 1020.0 1019.5 0.0
25/11:00pm 9.4 7.4 4.2 70 2.3 WSW 4 6 2 3 1019.9 1019.4 0.0
25/10:30pm 9.7 7.8 4.7 71 2.3 WSW 4 9 2 5 1019.9 1019.4 0.0
25/10:00pm 10.2 9.0 4.4 67 2.6 CALM 0 0 0 0 1019.9 1019.4 0.0
25/09:30pm 11.4 10.1 3.9 60 3.4 CALM 0 4 0 2 1020.0 1019.5 0.0
25/09:00pm 12.0 10.7 4.0 58 3.6 CALM 0 0 0 0 1020.0 1019.5 0.0
25/08:30pm 13.9 12.3 4.5 53 4.4 SSW 2 9 1 5 1020.0 1019.5 0.0
25/08:00pm 13.7 12.1 4.3 53 4.4 E 2 4 1 2 1019.9 1019.4 0.0
25/07:30pm 16.7 14.6 4.1 43 6.0 SSW 4 6 2 3 1019.6 1019.1 0.0
25/07:00pm 16.6 14.1 3.7 42 6.0 SW 6 7 3 4 1019.2 1018.7 0.0
25/06:30pm 19.8 17.1 2.6 32 8.1 SW 6 6 3 3 1018.9 1018.3 0.0
25/06:00pm 21.8 19.0 2.0 27 9.3 SSW 6 7 3 4 1018.7 1018.1 0.0
25/05:30pm 23.4 19.8 2.8 26 10.0 S 11 17 6 9 1018.4 1017.8 0.0
25/05:00pm 24.2 19.7 2.4 24 10.5 SSW 15 26 8 14 1018.1 1017.5 0.0
25/04:30pm 24.6 20.2 2.7 24 10.7 S 15 26 8 14 1017.9 1017.4 0.0
25/04:00pm 25.3 21.5 3.9 25 10.7 S 13 22 7 12 1017.7 1017.2 0.0
25/03:30pm 24.7 20.0 3.4 25 10.6 S 17 30 9 16 1017.9 1017.4 0.0
25/03:00pm 24.8 20.9 3.5 25 10.6 SSW 13 22 7 12 1018.1 1017.5 0.0
25/02:30pm 24.7 20.5 3.9 26 10.4 SE 15 28 8 15 1018.4 1017.8 0.0
25/02:00pm 24.9 19.7 3.5 25 10.6 SSE 20 26 11 14 1018.9 1018.3 0.0
25/01:30pm 24.4 20.7 4.2 27 10.1 S 13 20 7 11 1019.3 1018.8 0.0
25/01:00pm 24.3 20.2 4.6 28 9.9 SE 15 26 8 14 1019.7 1019.2 0.0
25/12:30pm 24.2 20.3 5.5 30 9.6 S 15 26 8 14 1020.2 1019.7 0.0
25/12:00pm 23.5 19.7 5.9 32 9.0 SSE 15 22 8 12 1021.0 1020.5 0.0
25/11:30am 22.8 18.6 5.7 33 8.7 SE 17 35 9 19 1021.6 1021.1 0.0
25/11:00am 22.3 18.2 6.1 35 8.3 SE 17 28 9 15 1022.3 1021.8 0.0
25/10:30am 22.1 18.1 6.7 37 8.0 ESE 17 26 9 14 1022.6 1022.1 0.0
25/10:00am 20.7 16.1 6.6 40 7.2 SE 20 32 11 17 1022.9 1022.4 0.0
25/09:30am 20.8 17.1 7.8 43 6.8 SSE 17 24 9 13 1023.2 1022.7 0.0
25/09:00am 19.1 15.6 7.2 46 6.1 SSE 15 20 8 11 1023.4 1022.9 0.0
25/08:30am 17.7 15.4 7.4 51 5.3 S 9 13 5 7 1023.3 1022.8 0.0
25/08:00am 15.5 15.0 8.0 61 3.8 CALM 0 4 0 2 1023.0 1022.5 0.0
25/07:30am 12.8 12.4 8.1 73 2.4 CALM 0 0 0 0 1022.7 1022.2 0.0
25/07:00am 9.4 8.8 7.2 86 1.0 CALM 0 0 0 0 1022.3 1021.8 0.0
25/06:30am 9.8 9.0 6.5 80 1.6 CALM 0 0 0 0 1022.1 1021.5 0.0
25/06:00am 10.7 9.6 7.0 78 1.8 SW 2 4 1 2 1021.7 1021.2 0.0
25/05:30am 11.9 10.9 7.4 74 2.2 SSW 2 4 1 2 1021.4 1020.9 0.0
25/05:00am 11.6 10.2 7.1 74 2.2 SSW 4 6 2 3 1021.1 1020.6 0.0
25/04:30am 12.5 10.8 7.4 71 2.5 SSW 6 7 3 4 1021.0 1020.5 0.0
25/04:00am 13.4 11.8 7.8 69 2.8 SSW 6 7 3 4 1021.0 1020.5 0.0
25/03:30am 14.4 12.6 7.9 65 3.3 SW 7 13 4 7 1021.0 1020.5 0.0
25/03:00am 15.8 13.3 8.1 60 3.9 S 11 19 6 10 1021.0 1020.5 0.0
25/02:30am 16.3 13.4 8.0 58 4.2 S 13 19 7 10 1021.1 1020.6 0.0
25/02:00am 16.6 14.1 8.3 58 4.3 SSE 11 17 6 9 1021.2 1020.7 0.0
25/01:30am 16.7 14.7 8.7 59 4.2 SE 9 15 5 8 1021.3 1020.8 0.0
25/01:00am 13.5 11.7 8.1 70 2.7 S 7 11 4 6 1021.2 1020.7 0.0
25/12:30am 12.7 11.1 8.2 74 2.3 S 6 9 3 5 1021.4 1020.9 0.0
25/12:00am 11.7 10.5 8.0 78 1.8 SW 4 6 2 3 1021.4 1020.9 0.0
 
Date/Time
EST
Temp
°C
App
Temp
°C
Dew
Point
Rel
Hum
%
Delta-T
°C
Wind Press
QNH
hPa
Press
MSL
hPa
Rain
since 9 am
mm
Dir
 
Spd
km/h
Gust
km/h
Spd
kts
Gust
kts
24/11:30pm 13.1 12.3 8.0 71 2.6 S 2 4 1 2 1021.4 1020.9 0.0
24/11:00pm 14.9 13.7 8.2 64 3.4 S 4 6 2 3 1021.4 1020.9 0.0
24/10:30pm 16.1 14.9 8.1 59 4.1 S 4 7 2 4 1021.3 1020.8 0.0
24/10:00pm 16.7 15.2 8.4 58 4.3 S 6 9 3 5 1021.4 1020.9 0.0
24/09:30pm 16.8 15.3 8.5 58 4.3 SSE 6 7 3 4 1021.5 1021.0 0.0
24/09:00pm 17.1 15.6 8.5 57 4.5 S 6 7 3 4 1021.3 1020.8 0.0
24/08:30pm 18.8 17.7 8.5 51 5.4 S 4 7 2 4 1021.1 1020.6 0.0
24/08:00pm 19.3 17.9 8.9 51 5.5 S 6 6 3 3 1021.0 1020.5 0.0
24/07:30pm 20.1 19.0 8.4 47 6.2 SSE 4 6 2 3 1020.7 1020.2 0.0
24/07:00pm 20.7 19.3 8.7 46 6.4 SSE 6 9 3 5 1020.5 1020.0 0.0

Other Formats:

Comma delimited format used in spreadsheet applications
http://www.bom.gov.au/fwo/IDQ60801/IDQ60801.94395.axf

JavaScript Object Notation format (JSON) in row-major order
http://www.bom.gov.au/fwo/IDQ60801/IDQ60801.94395.json